createdAt,value
2022-08-25T00:00:05.664Z,99361.59
2022-08-25T00:00:45.329Z,99361.30
2022-08-25T00:01:27.061Z,99362.77
2022-08-25T00:02:08.189Z,99364.08
2022-08-25T00:02:48.506Z,99361.02
2022-08-25T00:03:28.994Z,99362.11
2022-08-25T00:04:11.920Z,99360.20
2022-08-25T00:04:53.585Z,99358.73
2022-08-25T00:05:32.345Z,99358.95
2022-08-25T00:06:07.525Z,99361.71
2022-08-25T00:06:43.484Z,99362.35
2022-08-25T00:07:18.661Z,99361.70
2022-08-25T00:07:51.992Z,99363.21
2022-08-25T00:08:25.106Z,99360.05
2022-08-25T00:09:00.061Z,99360.23
2022-08-25T00:09:35.312Z,99359.36
2022-08-25T00:10:09.523Z,99362.10
2022-08-25T00:10:42.968Z,99358.03
2022-08-25T00:11:30.446Z,99362.89
2022-08-25T00:12:06.250Z,99362.42
2022-08-25T00:12:39.463Z,99361.77
2022-08-25T00:13:12.925Z,99360.60
2022-08-25T00:13:52.944Z,99359.81
2022-08-25T00:14:33.706Z,99362.58
2022-08-25T00:15:07.089Z,99361.17
2022-08-25T00:15:40.840Z,99360.80
2022-08-25T00:16:16.955Z,99360.98
2022-08-25T00:16:50.794Z,99359.31
2022-08-25T00:17:23.868Z,99361.84
2022-08-25T00:17:57.583Z,99361.38
2022-08-25T00:18:30.736Z,99361.21
2022-08-25T00:19:11.847Z,99365.06
2022-08-25T00:19:45.455Z,99361.77
2022-08-25T00:20:19.170Z,99360.75
2022-08-25T00:20:52.645Z,99362.13
2022-08-25T00:21:26.864Z,99361.87
2022-08-25T00:22:01.814Z,99365.79
2022-08-25T00:22:35.055Z,99362.86
2022-08-25T00:23:08.208Z,99363.62
2022-08-25T00:23:42.695Z,99362.40
2022-08-25T00:24:19.805Z,99363.04
2022-08-25T00:24:53.248Z,99361.39
2022-08-25T00:25:27.244Z,99361.71
2022-08-25T00:26:02.746Z,99359.79
2022-08-25T00:26:40.094Z,99357.27
2022-08-25T00:27:13.282Z,99360.67
2022-08-25T00:27:47.640Z,99358.69
2022-08-25T00:28:21.462Z,99359.66
2022-08-25T00:29:01.681Z,99361.98
2022-08-25T00:29:38.262Z,99357.64
2022-08-25T00:30:12.318Z,99359.77
2022-08-25T00:30:49.884Z,99355.46
2022-08-25T00:31:37.707Z,99357.20
2022-08-25T00:32:13.103Z,99355.08
2022-08-25T00:32:51.453Z,99354.96
2022-08-25T00:33:33.959Z,99354.32
2022-08-25T00:34:10.079Z,99352.12
2022-08-25T00:34:43.332Z,99353.81
2022-08-25T00:35:16.728Z,99354.93
2022-08-25T00:35:50.741Z,99355.46
2022-08-25T00:36:23.832Z,99354.40
2022-08-25T00:36:57.018Z,99352.59
2022-08-25T00:37:30.170Z,99353.12
2022-08-25T00:38:04.088Z,99355.25
2022-08-25T00:38:38.442Z,99353.38
2022-08-25T00:39:12.212Z,99352.08
2022-08-25T00:39:46.109Z,99355.60
2022-08-25T00:40:20.545Z,99353.04
2022-08-25T00:41:06.460Z,99354.15
2022-08-25T00:41:42.624Z,99354.77
2022-08-25T00:42:16.230Z,99354.07
2022-08-25T00:42:49.624Z,99355.92
2022-08-25T00:43:23.373Z,99356.71
2022-08-25T00:43:59.909Z,99359.10
2022-08-25T00:44:34.399Z,99354.14
2022-08-25T00:45:09.840Z,99356.04
2022-08-25T00:45:43.179Z,99353.70
2022-08-25T00:46:21.102Z,99354.96
2022-08-25T00:46:57.963Z,99355.95
2022-08-25T00:47:31.438Z,99354.25
2022-08-25T00:48:05.216Z,99350.66
2022-08-25T00:48:42.670Z,99353.36
2022-08-25T00:49:24.947Z,99352.89
2022-08-25T00:50:02.302Z,99350.41
2022-08-25T00:50:35.489Z,99350.73
2022-08-25T00:51:12.035Z,99348.20
2022-08-25T00:51:49.866Z,99349.00
2022-08-25T00:52:28.549Z,99350.00
2022-08-25T00:53:04.578Z,99353.22
2022-08-25T00:53:39.631Z,99349.42
2022-08-25T00:54:23.179Z,99352.58
2022-08-25T00:55:08.075Z,99348.82
2022-08-25T00:55:41.950Z,99350.98
2022-08-25T00:56:15.362Z,99352.20
2022-08-25T00:56:52.364Z,99351.39
2022-08-25T00:57:34.061Z,99351.58
2022-08-25T00:58:20.560Z,99350.79
2022-08-25T00:58:53.917Z,99350.16
2022-08-25T00:59:28.135Z,99348.87
2022-08-25T01:00:02.304Z,99351.77
2022-08-25T01:00:39.817Z,99351.65
2022-08-25T01:01:12.981Z,99352.70
2022-08-25T01:01:46.437Z,99352.88
2022-08-25T01:02:19.795Z,99354.80
2022-08-25T01:02:53.017Z,99351.54
2022-08-25T01:03:33.000Z,99354.58
2022-08-25T01:04:08.693Z,99354.30
2022-08-25T01:04:49.132Z,99355.16
2022-08-25T01:05:22.652Z,99353.83
2022-08-25T01:05:57.328Z,99353.37
2022-08-25T01:06:36.436Z,99355.50
2022-08-25T01:07:13.822Z,99355.23
2022-08-25T01:07:52.637Z,99353.09
2022-08-25T01:08:33.501Z,99355.55
2022-08-25T01:09:07.750Z,99356.05
2022-08-25T01:09:42.781Z,99356.29
2022-08-25T01:10:18.935Z,99357.11
2022-08-25T01:10:52.564Z,99356.42
2022-08-25T01:11:27.068Z,99357.61
2022-08-25T01:12:01.718Z,99355.23
2022-08-25T01:12:37.623Z,99357.05
2022-08-25T01:13:20.009Z,99356.88
2022-08-25T01:13:56.164Z,99354.22
2022-08-25T01:14:31.772Z,99354.63
2022-08-25T01:15:07.076Z,99353.83
2022-08-25T01:15:41.949Z,99356.73
2022-08-25T01:16:16.646Z,99355.77
2022-08-25T01:16:51.030Z,99357.20
2022-08-25T01:17:35.182Z,99357.11
2022-08-25T01:18:09.082Z,99354.60
2022-08-25T01:18:51.461Z,99355.62
2022-08-25T01:19:26.520Z,99357.39
2022-08-25T01:19:59.678Z,99354.30
2022-08-25T01:20:35.133Z,99354.83
2022-08-25T01:21:08.278Z,99354.61
2022-08-25T01:21:51.051Z,99353.14
2022-08-25T01:22:26.940Z,99353.42
2022-08-25T01:23:01.031Z,99352.81
2022-08-25T01:23:34.500Z,99349.98
2022-08-25T01:24:14.567Z,99353.02
2022-08-25T01:24:57.288Z,99355.26
2022-08-25T01:25:57.547Z,99353.91
2022-08-25T01:26:33.799Z,99352.70
2022-08-25T01:27:08.109Z,99351.83
2022-08-25T01:27:41.202Z,99348.54
2022-08-25T01:28:15.170Z,99352.55
2022-08-25T01:29:09.117Z,99349.73
2022-08-25T01:29:42.888Z,99347.60
2022-08-25T01:30:16.261Z,99350.58
2022-08-25T01:30:50.399Z,99348.00
2022-08-25T01:31:24.451Z,99349.39
2022-08-25T01:32:04.857Z,99351.35
2022-08-25T01:32:38.144Z,99348.05
2022-08-25T01:33:13.108Z,99348.73
2022-08-25T01:33:46.340Z,99345.23
2022-08-25T01:34:20.493Z,99346.76
2022-08-25T01:34:53.664Z,99346.84
2022-08-25T01:35:27.145Z,99351.05
2022-08-25T01:36:00.396Z,99352.62
2022-08-25T01:36:35.931Z,99351.65
2022-08-25T01:37:12.083Z,99347.31
2022-08-25T01:37:46.912Z,99353.62
2022-08-25T01:38:21.306Z,99350.03
2022-08-25T01:38:56.909Z,99349.77
2022-08-25T01:39:34.128Z,99352.27
2022-08-25T01:40:07.919Z,99349.94
2022-08-25T01:40:43.185Z,99351.66
2022-08-25T01:41:45.040Z,99354.11
2022-08-25T01:43:00.384Z,99352.41
2022-08-25T01:43:39.150Z,99350.83
2022-08-25T01:44:16.157Z,99353.16
2022-08-25T01:44:50.069Z,99355.75
2022-08-25T01:45:23.473Z,99352.29
2022-08-25T01:45:58.290Z,99350.63
2022-08-25T01:46:32.861Z,99355.10
2022-08-25T01:47:07.830Z,99357.13
2022-08-25T01:47:41.408Z,99355.41
2022-08-25T01:48:16.439Z,99354.65
2022-08-25T01:48:49.727Z,99355.00
2022-08-25T01:49:23.339Z,99355.45
2022-08-25T01:49:56.794Z,99353.54
2022-08-25T01:50:30.148Z,99351.13
2022-08-25T01:51:03.302Z,99351.87
2022-08-25T01:51:56.013Z,99351.14
2022-08-25T01:52:35.218Z,99350.71
2022-08-25T01:53:12.356Z,99350.33
2022-08-25T01:53:45.565Z,99352.45
2022-08-25T01:54:18.941Z,99354.95
2022-08-25T01:54:52.169Z,99351.83
2022-08-25T01:55:25.913Z,99354.23
2022-08-25T01:56:06.509Z,99353.86
2022-08-25T01:56:43.691Z,99355.07
2022-08-25T01:57:16.900Z,99356.13
2022-08-25T01:57:50.100Z,99354.67
2022-08-25T01:58:26.715Z,99358.95
2022-08-25T01:58:59.819Z,99360.17
2022-08-25T01:59:33.429Z,99360.95
2022-08-25T02:00:09.522Z,99367.64
2022-08-25T02:00:46.764Z,99368.39
2022-08-25T02:01:23.060Z,99370.33
2022-08-25T02:01:59.730Z,99366.87
2022-08-25T02:02:33.459Z,99365.21
2022-08-25T02:03:08.474Z,99365.69
2022-08-25T02:03:54.840Z,99366.35
2022-08-25T02:04:32.536Z,99365.33
2022-08-25T02:05:06.555Z,99364.94
2022-08-25T02:05:39.701Z,99366.48
2022-08-25T02:06:14.819Z,99366.89
2022-08-25T02:06:47.846Z,99362.73
2022-08-25T02:07:21.159Z,99367.52
2022-08-25T02:07:54.975Z,99365.70
2022-08-25T02:08:28.155Z,99366.38
2022-08-25T02:09:12.106Z,99365.38
2022-08-25T02:09:45.455Z,99365.33
2022-08-25T02:10:19.133Z,99361.95
2022-08-25T02:10:54.206Z,99361.39
2022-08-25T02:11:28.624Z,99362.52
2022-08-25T02:12:01.878Z,99362.52
2022-08-25T02:12:37.201Z,99362.02
2022-08-25T02:13:11.320Z,99364.61
2022-08-25T02:13:47.911Z,99364.13
2022-08-25T02:14:21.211Z,99366.92
2022-08-25T02:14:54.343Z,99368.48
2022-08-25T02:15:27.966Z,99368.84
2022-08-25T02:16:02.473Z,99371.58
2022-08-25T02:16:39.045Z,99369.82
2022-08-25T02:17:12.451Z,99369.21
2022-08-25T02:17:45.577Z,99367.88
2022-08-25T02:18:19.979Z,99368.31
2022-08-25T02:18:53.455Z,99369.94
2022-08-25T02:19:26.800Z,99368.23
2022-08-25T02:19:59.956Z,99371.07
2022-08-25T02:20:33.107Z,99368.57
2022-08-25T02:21:06.350Z,99367.50
2022-08-25T02:21:40.286Z,99367.09
2022-08-25T02:22:13.342Z,99364.47
2022-08-25T02:22:53.077Z,99368.73
2022-08-25T02:23:30.368Z,99366.36
2022-08-25T02:24:04.595Z,99363.93
2022-08-25T02:24:38.090Z,99366.25
2022-08-25T02:25:11.751Z,99368.16
2022-08-25T02:25:44.860Z,99363.73
2022-08-25T02:26:20.180Z,99366.29
2022-08-25T02:26:53.582Z,99361.38
2022-08-25T02:27:26.795Z,99364.73
2022-08-25T02:28:01.072Z,99362.52
2022-08-25T02:28:34.819Z,99365.45
2022-08-25T02:29:08.697Z,99363.14
2022-08-25T02:29:42.136Z,99363.26
2022-08-25T02:30:17.273Z,99361.23
2022-08-25T02:30:53.318Z,99363.08
2022-08-25T02:31:34.297Z,99358.25
2022-08-25T02:32:08.274Z,99360.16
2022-08-25T02:32:42.171Z,99358.63
2022-08-25T02:33:15.463Z,99356.05
2022-08-25T02:33:49.755Z,99356.68
2022-08-25T02:34:24.261Z,99358.77
2022-08-25T02:34:57.226Z,99357.05
2022-08-25T02:35:31.351Z,99359.19
2022-08-25T02:36:05.362Z,99357.17
2022-08-25T02:36:40.473Z,99358.40
2022-08-25T02:37:14.468Z,99360.66
2022-08-25T02:37:47.915Z,99359.83
2022-08-25T02:38:21.125Z,99358.23
2022-08-25T02:38:54.716Z,99357.57
2022-08-25T02:39:28.017Z,99355.79
2022-08-25T02:40:01.726Z,99356.99
2022-08-25T02:40:35.480Z,99357.85
2022-08-25T02:41:12.995Z,99356.83
2022-08-25T02:41:46.309Z,99355.92
2022-08-25T02:42:19.545Z,99355.85
2022-08-25T02:42:53.876Z,99358.45
2022-08-25T02:43:28.312Z,99356.81
2022-08-25T02:44:03.914Z,99358.25
2022-08-25T02:44:37.385Z,99356.02
2022-08-25T02:45:10.989Z,99358.94
2022-08-25T02:45:44.248Z,99354.63
2022-08-25T02:46:20.268Z,99357.55
2022-08-25T02:46:53.401Z,99358.73
2022-08-25T02:47:27.028Z,99358.05
2022-08-25T02:48:00.649Z,99356.27
2022-08-25T02:48:34.185Z,99356.37
2022-08-25T02:49:09.356Z,99357.90
2022-08-25T02:49:42.853Z,99357.52
2022-08-25T02:50:16.542Z,99357.63
2022-08-25T02:50:52.803Z,99355.87
2022-08-25T02:51:30.360Z,99360.30
2022-08-25T02:52:04.014Z,99359.33
2022-08-25T02:52:38.560Z,99357.36
2022-08-25T02:53:11.782Z,99359.45
2022-08-25T02:53:47.197Z,99358.54
2022-08-25T02:54:20.578Z,99358.31
2022-08-25T02:54:55.792Z,99358.86
2022-08-25T02:55:29.027Z,99357.25
2022-08-25T02:56:02.479Z,99358.82
2022-08-25T02:56:35.645Z,99358.21
2022-08-25T02:57:08.872Z,99358.96
2022-08-25T02:57:42.759Z,99359.79
2022-08-25T02:58:16.158Z,99355.71
2022-08-25T02:58:49.413Z,99358.80
2022-08-25T02:59:22.624Z,99364.11
2022-08-25T02:59:55.710Z,99359.46
2022-08-25T03:00:28.983Z,99365.98
2022-08-25T03:01:02.263Z,99362.40
2022-08-25T03:01:35.614Z,99359.94
2022-08-25T03:02:08.765Z,99361.02
2022-08-25T03:02:43.224Z,99359.91
2022-08-25T03:03:16.877Z,99361.42
2022-08-25T03:03:52.676Z,99362.59
2022-08-25T03:04:25.899Z,99362.23
2022-08-25T03:04:59.290Z,99359.02
2022-08-25T03:05:33.317Z,99359.92
2022-08-25T03:06:13.002Z,99360.34
2022-08-25T03:06:46.531Z,99358.16
2022-08-25T03:07:22.399Z,99358.51
2022-08-25T03:07:58.076Z,99354.98
2022-08-25T03:08:31.349Z,99357.16
2022-08-25T03:09:04.954Z,99357.90
2022-08-25T03:09:38.409Z,99359.70
2022-08-25T03:10:16.469Z,99358.85
2022-08-25T03:10:49.681Z,99363.47
2022-08-25T03:11:26.797Z,99358.29
2022-08-25T03:12:00.104Z,99362.02
2022-08-25T03:12:33.815Z,99359.92
2022-08-25T03:13:07.167Z,99360.06
2022-08-25T03:13:40.905Z,99360.59
2022-08-25T03:14:14.253Z,99361.10
2022-08-25T03:14:47.536Z,99364.52
2022-08-25T03:15:21.287Z,99366.40
2022-08-25T03:15:54.794Z,99363.56
2022-08-25T03:16:29.732Z,99362.36
2022-08-25T03:17:03.097Z,99362.27
2022-08-25T03:17:45.596Z,99364.48
2022-08-25T03:18:19.344Z,99363.86
2022-08-25T03:18:52.437Z,99363.15
2022-08-25T03:19:25.568Z,99361.35
2022-08-25T03:19:59.000Z,99359.96
2022-08-25T03:20:33.896Z,99360.66
2022-08-25T03:21:07.497Z,99360.55
2022-08-25T03:21:40.707Z,99358.41
2022-08-25T03:22:13.887Z,99360.98
2022-08-25T03:22:47.207Z,99360.40
2022-08-25T03:23:21.087Z,99358.70
2022-08-25T03:23:54.216Z,99361.09
2022-08-25T03:24:28.490Z,99360.70
2022-08-25T03:25:23.993Z,99358.05
2022-08-25T03:26:16.175Z,99363.23
2022-08-25T03:26:56.344Z,99361.84
2022-08-25T03:27:30.738Z,99361.39
2022-08-25T03:28:05.121Z,99361.60
2022-08-25T03:28:39.186Z,99364.63
2022-08-25T03:29:13.830Z,99365.19
2022-08-25T03:29:47.400Z,99362.11
2022-08-25T03:30:21.157Z,99360.56
2022-08-25T03:30:55.877Z,99361.98
2022-08-25T03:31:29.504Z,99361.42
2022-08-25T03:32:03.168Z,99363.17
2022-08-25T03:32:36.681Z,99363.02
2022-08-25T03:33:10.433Z,99362.60
2022-08-25T03:33:43.771Z,99361.91
2022-08-25T03:34:18.551Z,99362.95
2022-08-25T03:34:51.933Z,99362.69
2022-08-25T03:35:25.229Z,99359.31
2022-08-25T03:35:59.540Z,99361.65
2022-08-25T03:36:32.738Z,99363.98
2022-08-25T03:37:08.785Z,99361.83
2022-08-25T03:37:42.040Z,99362.48
2022-08-25T03:38:17.304Z,99363.36
2022-08-25T03:38:51.345Z,99362.67
2022-08-25T03:39:26.386Z,99365.59
2022-08-25T03:40:00.255Z,99366.83
2022-08-25T03:40:33.549Z,99366.50
2022-08-25T03:41:16.016Z,99366.54
2022-08-25T03:41:49.874Z,99368.58
2022-08-25T03:42:23.190Z,99365.73
2022-08-25T03:42:57.189Z,99365.28
2022-08-25T03:43:30.385Z,99366.63
2022-08-25T03:44:05.573Z,99368.16
2022-08-25T03:44:38.689Z,99363.11
2022-08-25T03:45:14.244Z,99367.17
2022-08-25T03:45:48.191Z,99365.55
2022-08-25T03:46:33.140Z,99364.01
2022-08-25T03:47:06.642Z,99365.40
2022-08-25T03:47:41.043Z,99363.71
2022-08-25T03:48:15.668Z,99364.52
2022-08-25T03:48:49.897Z,99365.63
2022-08-25T03:49:24.659Z,99364.73
2022-08-25T03:49:58.232Z,99363.05
2022-08-25T03:50:31.890Z,99367.30
2022-08-25T03:51:05.625Z,99365.34
2022-08-25T03:51:43.779Z,99366.67
2022-08-25T03:52:18.570Z,99368.16
2022-08-25T03:52:57.364Z,99368.64
2022-08-25T03:53:30.461Z,99367.55
2022-08-25T03:54:05.532Z,99364.20
2022-08-25T03:54:38.894Z,99367.42
2022-08-25T03:55:14.903Z,99367.74
2022-08-25T03:55:48.723Z,99369.33
2022-08-25T03:56:22.044Z,99369.88
2022-08-25T03:56:55.927Z,99368.92
2022-08-25T03:57:29.324Z,99372.30
2022-08-25T03:58:02.641Z,99368.33
2022-08-25T03:58:35.739Z,99372.86
2022-08-25T03:59:10.358Z,99376.53
2022-08-25T03:59:43.686Z,99371.77
2022-08-25T04:00:17.681Z,99373.66
2022-08-25T04:00:51.002Z,99372.96
2022-08-25T04:01:24.778Z,99372.21
2022-08-25T04:01:58.294Z,99374.71
2022-08-25T04:02:34.050Z,99371.20
2022-08-25T04:03:07.302Z,99369.08
2022-08-25T04:03:40.616Z,99367.05
2022-08-25T04:04:15.705Z,99365.67
2022-08-25T04:04:48.993Z,99367.55
2022-08-25T04:05:22.555Z,99365.20
2022-08-25T04:06:05.133Z,99364.48
2022-08-25T04:06:43.726Z,99365.86
2022-08-25T04:07:17.431Z,99362.30
2022-08-25T04:07:50.656Z,99362.98
2022-08-25T04:08:23.975Z,99359.95
2022-08-25T04:08:58.979Z,99359.34
2022-08-25T04:09:35.229Z,99355.64
2022-08-25T04:10:11.334Z,99357.52
2022-08-25T04:10:44.766Z,99352.42
2022-08-25T04:11:21.335Z,99351.31
2022-08-25T04:11:54.743Z,99348.98
2022-08-25T04:12:27.945Z,99354.02
2022-08-25T04:13:02.067Z,99352.20
2022-08-25T04:13:36.439Z,99349.09
2022-08-25T04:14:10.121Z,99353.70
2022-08-25T04:14:49.421Z,99348.70
2022-08-25T04:15:22.585Z,99350.00
2022-08-25T04:15:55.736Z,99344.20
2022-08-25T04:16:34.136Z,99346.71
2022-08-25T04:17:08.687Z,99349.15
2022-08-25T04:17:42.613Z,99346.98
2022-08-25T04:18:16.660Z,99346.88
2022-08-25T04:18:51.195Z,99351.10
2022-08-25T04:19:24.426Z,99349.80
2022-08-25T04:19:57.584Z,99351.49
2022-08-25T04:20:30.741Z,99351.93
2022-08-25T04:21:06.343Z,99352.10
2022-08-25T04:21:40.934Z,99349.14
2022-08-25T04:22:13.949Z,99348.45
2022-08-25T04:22:47.200Z,99348.77
2022-08-25T04:23:20.841Z,99349.47
2022-08-25T04:23:55.600Z,99351.55
2022-08-25T04:24:29.036Z,99352.58
2022-08-25T04:25:02.652Z,99353.27
2022-08-25T04:25:42.422Z,99353.71
2022-08-25T04:26:37.475Z,99351.95
2022-08-25T04:27:10.612Z,99353.84
2022-08-25T04:27:43.684Z,99356.67
2022-08-25T04:28:16.798Z,99355.68
2022-08-25T04:28:51.095Z,99353.10
2022-08-25T04:29:26.231Z,99357.98
2022-08-25T04:29:59.683Z,99353.77
2022-08-25T04:30:32.861Z,99354.90
2022-08-25T04:31:10.237Z,99354.48
2022-08-25T04:31:48.690Z,99358.02
2022-08-25T04:32:22.813Z,99359.36
2022-08-25T04:32:55.986Z,99352.91
2022-08-25T04:33:29.930Z,99352.17
2022-08-25T04:34:13.435Z,99350.75
2022-08-25T04:34:59.296Z,99347.73
2022-08-25T04:35:32.576Z,99351.65
2022-08-25T04:36:11.892Z,99349.31
2022-08-25T04:36:45.801Z,99348.67
2022-08-25T04:37:25.904Z,99349.92
2022-08-25T04:37:59.886Z,99352.38
2022-08-25T04:38:33.844Z,99346.02
2022-08-25T04:39:07.727Z,99346.27
2022-08-25T04:39:41.559Z,99343.45
2022-08-25T04:40:15.075Z,99344.84
2022-08-25T04:40:56.874Z,99342.74
2022-08-25T04:41:31.622Z,99342.00
2022-08-25T04:42:05.563Z,99341.23
2022-08-25T04:42:39.086Z,99346.29
2022-08-25T04:43:12.744Z,99342.29
2022-08-25T04:43:46.434Z,99345.92
2022-08-25T04:44:19.802Z,99343.03
2022-08-25T04:44:52.920Z,99345.77
2022-08-25T04:45:26.194Z,99342.84
2022-08-25T04:46:00.595Z,99344.80
2022-08-25T04:46:34.987Z,99342.89
2022-08-25T04:47:08.085Z,99343.92
2022-08-25T04:47:41.245Z,99342.88
2022-08-25T04:48:14.314Z,99343.92
2022-08-25T04:48:49.408Z,99344.95
2022-08-25T04:49:22.559Z,99343.52
2022-08-25T04:49:55.680Z,99346.44
2022-08-25T04:50:28.871Z,99346.05
2022-08-25T04:51:10.494Z,99346.09
2022-08-25T04:51:44.529Z,99343.20
2022-08-25T04:52:17.865Z,99345.05
2022-08-25T04:52:51.058Z,99347.70
2022-08-25T04:53:24.254Z,99343.40
2022-08-25T04:54:05.850Z,99344.86
2022-08-25T04:54:38.989Z,99346.17
2022-08-25T04:55:12.121Z,99348.95
2022-08-25T04:55:48.060Z,99346.02
2022-08-25T04:56:25.408Z,99344.44
2022-08-25T04:56:59.015Z,99347.27
2022-08-25T04:57:32.823Z,99347.16
2022-08-25T04:58:07.045Z,99346.59
2022-08-25T04:58:48.204Z,99346.69
2022-08-25T04:59:21.687Z,99344.14
2022-08-25T04:59:55.829Z,99346.67
2022-08-25T05:00:29.315Z,99343.74
2022-08-25T05:01:24.407Z,99342.29
2022-08-25T05:02:02.870Z,99343.84
2022-08-25T05:02:36.411Z,99343.98
2022-08-25T05:03:10.112Z,99347.22
2022-08-25T05:03:44.596Z,99342.31
2022-08-25T05:04:27.727Z,99344.30
2022-08-25T05:05:04.511Z,99342.14
2022-08-25T05:05:38.375Z,99343.05
2022-08-25T05:06:15.837Z,99344.18
2022-08-25T05:06:49.684Z,99344.63
2022-08-25T05:07:23.172Z,99342.22
2022-08-25T05:07:56.893Z,99343.73
2022-08-25T05:08:30.162Z,99343.79
2022-08-25T05:09:05.402Z,99343.66
2022-08-25T05:09:38.725Z,99345.52
2022-08-25T05:10:12.285Z,99344.69
2022-08-25T05:10:45.395Z,99346.97
2022-08-25T05:11:19.847Z,99347.30
2022-08-25T05:11:56.885Z,99345.90
2022-08-25T05:12:30.729Z,99347.28
2022-08-25T05:13:06.376Z,99346.80
2022-08-25T05:13:41.404Z,99348.27
2022-08-25T05:14:18.527Z,99349.80
2022-08-25T05:14:55.104Z,99351.09
2022-08-25T05:15:47.072Z,99351.34
2022-08-25T05:16:26.338Z,99351.17
2022-08-25T05:17:00.096Z,99350.55
2022-08-25T05:17:33.330Z,99354.84
2022-08-25T05:18:07.543Z,99354.80
2022-08-25T05:18:41.555Z,99356.33
2022-08-25T05:19:15.075Z,99356.83
2022-08-25T05:19:48.246Z,99356.22
2022-08-25T05:20:21.511Z,99359.44
2022-08-25T05:20:56.373Z,99356.21
2022-08-25T05:21:29.589Z,99357.40
2022-08-25T05:22:02.697Z,99358.92
2022-08-25T05:22:35.918Z,99358.70
2022-08-25T05:23:09.144Z,99358.67
2022-08-25T05:23:43.746Z,99362.45
2022-08-25T05:24:16.920Z,99359.11
2022-08-25T05:24:51.350Z,99361.65
2022-08-25T05:25:24.816Z,99360.44
2022-08-25T05:26:05.203Z,99358.35
2022-08-25T05:26:38.607Z,99356.63
2022-08-25T05:27:12.302Z,99360.61
2022-08-25T05:27:45.478Z,99359.14
2022-08-25T05:28:20.664Z,99357.88
2022-08-25T05:28:55.454Z,99360.10
2022-08-25T05:29:28.796Z,99357.99
2022-08-25T05:30:02.057Z,99361.04
2022-08-25T05:30:39.554Z,99358.45
2022-08-25T05:31:14.908Z,99357.10
2022-08-25T05:31:50.553Z,99356.87
2022-08-25T05:32:24.710Z,99358.24
2022-08-25T05:32:57.930Z,99356.48
2022-08-25T05:33:32.709Z,99355.83
2022-08-25T05:34:08.434Z,99358.52
2022-08-25T05:34:41.545Z,99360.27
2022-08-25T05:35:16.366Z,99359.06
2022-08-25T05:35:49.492Z,99362.94
2022-08-25T05:36:27.043Z,99359.48
2022-08-25T05:37:03.665Z,99359.73
2022-08-25T05:37:38.294Z,99359.17
2022-08-25T05:38:15.344Z,99361.55
2022-08-25T05:38:49.629Z,99361.55
2022-08-25T05:39:22.808Z,99358.52
2022-08-25T05:39:57.149Z,99355.64
2022-08-25T05:40:31.104Z,99358.95
2022-08-25T05:41:10.746Z,99359.58
2022-08-25T05:41:44.435Z,99360.22
2022-08-25T05:42:18.039Z,99356.43
2022-08-25T05:42:51.621Z,99358.15
2022-08-25T05:43:27.049Z,99358.80
2022-08-25T05:44:00.405Z,99361.98
2022-08-25T05:44:34.343Z,99360.56
2022-08-25T05:45:08.465Z,99361.16
2022-08-25T05:45:42.124Z,99363.94
2022-08-25T05:46:16.676Z,99363.15
2022-08-25T05:46:50.844Z,99362.48
2022-08-25T05:47:24.345Z,99365.61
2022-08-25T05:47:58.437Z,99366.15
2022-08-25T05:48:31.619Z,99359.78
2022-08-25T05:49:04.763Z,99364.55
2022-08-25T05:49:37.981Z,99363.27
2022-08-25T05:50:11.593Z,99365.46
2022-08-25T05:50:52.515Z,99363.55
2022-08-25T05:51:26.939Z,99364.58
2022-08-25T05:52:00.191Z,99366.33
2022-08-25T05:52:33.409Z,99359.59
2022-08-25T05:53:06.787Z,99363.89
2022-08-25T05:53:43.328Z,99362.52
2022-08-25T05:54:16.677Z,99364.41
2022-08-25T05:54:49.708Z,99365.27
2022-08-25T05:55:22.853Z,99367.66
2022-08-25T05:55:58.447Z,99365.32
2022-08-25T05:56:31.724Z,99363.17
2022-08-25T05:57:05.202Z,99363.45
2022-08-25T05:57:38.806Z,99365.27
2022-08-25T05:58:12.193Z,99367.91
2022-08-25T05:58:47.935Z,99363.16
2022-08-25T05:59:21.031Z,99366.11
2022-08-25T05:59:54.198Z,99364.95
2022-08-25T06:00:27.451Z,99364.63
2022-08-25T06:01:21.450Z,99364.79
2022-08-25T06:02:13.394Z,99364.95
2022-08-25T06:02:48.790Z,99367.71
2022-08-25T06:03:22.116Z,99365.04
2022-08-25T06:03:55.461Z,99365.25
2022-08-25T06:04:28.837Z,99371.04
2022-08-25T06:05:02.370Z,99366.66
2022-08-25T06:05:35.623Z,99369.52
2022-08-25T06:06:09.329Z,99369.49
2022-08-25T06:06:42.852Z,99368.13
2022-08-25T06:07:16.242Z,99368.20
2022-08-25T06:07:51.276Z,99370.70
2022-08-25T06:08:24.485Z,99372.42
2022-08-25T06:08:57.790Z,99371.41
2022-08-25T06:09:31.070Z,99374.20
2022-08-25T06:10:07.133Z,99372.48
2022-08-25T06:10:40.429Z,99371.85
2022-08-25T06:11:14.439Z,99370.48
2022-08-25T06:11:52.844Z,99371.95
2022-08-25T06:12:27.994Z,99371.67
2022-08-25T06:13:01.178Z,99372.50
2022-08-25T06:13:34.464Z,99372.58
2022-08-25T06:14:09.288Z,99369.58
2022-08-25T06:14:42.745Z,99371.23
2022-08-25T06:15:22.218Z,99372.44
2022-08-25T06:16:00.153Z,99371.34
2022-08-25T06:16:33.603Z,99371.79
2022-08-25T06:17:06.987Z,99370.96
2022-08-25T06:17:43.304Z,99371.15
2022-08-25T06:18:17.306Z,99373.48
2022-08-25T06:18:50.924Z,99377.34
2022-08-25T06:19:24.018Z,99371.86
2022-08-25T06:19:57.657Z,99373.58
2022-08-25T06:20:32.315Z,99375.60
2022-08-25T06:21:14.602Z,99374.64
2022-08-25T06:21:48.017Z,99372.66
2022-08-25T06:22:22.051Z,99376.20
2022-08-25T06:22:55.383Z,99375.21
2022-08-25T06:23:28.705Z,99376.23
2022-08-25T06:24:02.080Z,99373.94
2022-08-25T06:24:35.526Z,99377.19
2022-08-25T06:25:10.547Z,99374.08
2022-08-25T06:25:50.392Z,99375.48
2022-08-25T06:26:23.857Z,99372.62
2022-08-25T06:26:58.188Z,99376.23
2022-08-25T06:27:31.713Z,99375.49
2022-08-25T06:28:05.119Z,99380.27
2022-08-25T06:28:38.493Z,99379.05
2022-08-25T06:29:14.344Z,99377.91
2022-08-25T06:29:47.576Z,99380.48
2022-08-25T06:30:24.584Z,99377.46
2022-08-25T06:31:03.728Z,99381.05
2022-08-25T06:31:36.942Z,99379.25
2022-08-25T06:32:10.199Z,99382.00
2022-08-25T06:32:45.351Z,99377.82
2022-08-25T06:33:18.480Z,99375.39
2022-08-25T06:33:52.593Z,99376.92
2022-08-25T06:34:25.861Z,99375.91
2022-08-25T06:34:59.538Z,99378.92
2022-08-25T06:35:32.690Z,99376.00
2022-08-25T06:36:09.049Z,99376.85
2022-08-25T06:36:42.417Z,99377.63
2022-08-25T06:37:15.633Z,99380.31
2022-08-25T06:37:48.719Z,99379.83
2022-08-25T06:38:22.365Z,99379.73
2022-08-25T06:38:55.493Z,99381.57
2022-08-25T06:39:29.383Z,99380.23
2022-08-25T06:40:02.892Z,99379.14
2022-08-25T06:40:36.404Z,99381.39
2022-08-25T06:41:14.168Z,99381.21
2022-08-25T06:41:51.734Z,99385.57
2022-08-25T06:42:24.934Z,99381.73
2022-08-25T06:42:58.073Z,99383.34
2022-08-25T06:43:33.438Z,99381.90
2022-08-25T06:44:06.577Z,99384.59
2022-08-25T06:44:39.861Z,99384.58
2022-08-25T06:45:13.031Z,99383.98
2022-08-25T06:45:48.623Z,99383.84
2022-08-25T06:46:35.927Z,99384.48
2022-08-25T06:47:10.166Z,99382.98
2022-08-25T06:47:45.621Z,99383.63
2022-08-25T06:48:19.353Z,99384.02
2022-08-25T06:48:53.161Z,99383.01
2022-08-25T06:49:31.828Z,99387.08
2022-08-25T06:50:07.944Z,99388.12
2022-08-25T06:50:41.687Z,99384.42
2022-08-25T06:51:18.412Z,99383.42
2022-08-25T06:51:51.679Z,99384.56
2022-08-25T06:52:29.225Z,99382.91
2022-08-25T06:53:02.820Z,99382.27
2022-08-25T06:53:36.775Z,99379.73
2022-08-25T06:54:10.587Z,99384.13
2022-08-25T06:54:43.822Z,99379.86